createdAt,value
2018-01-02T00:00:18.310Z,997.43
2018-01-02T00:01:18.298Z,997.44
2018-01-02T00:02:18.297Z,997.50
2018-01-02T00:03:18.285Z,997.45
2018-01-02T00:04:18.788Z,997.47
2018-01-02T00:05:18.270Z,997.52
2018-01-02T00:06:18.259Z,997.59
2018-01-02T00:07:18.251Z,997.60
2018-01-02T00:08:18.237Z,997.61
2018-01-02T00:09:18.238Z,997.61
2018-01-02T00:10:18.227Z,997.69
2018-01-02T00:11:18.217Z,997.69
2018-01-02T00:12:18.211Z,997.67
2018-01-02T00:13:18.204Z,997.71
2018-01-02T00:14:18.194Z,997.74
2018-01-02T00:15:18.184Z,997.76
2018-01-02T00:16:18.171Z,997.74
2018-01-02T00:17:18.170Z,997.72
2018-01-02T00:18:18.159Z,997.79
2018-01-02T00:19:18.153Z,997.79
2018-01-02T00:20:18.142Z,997.82
2018-01-02T00:21:18.133Z,997.80
2018-01-02T00:22:18.127Z,997.81
2018-01-02T00:23:18.118Z,997.87
2018-01-02T00:24:18.112Z,997.81
2018-01-02T00:25:18.109Z,997.86
2018-01-02T00:26:18.096Z,997.80
2018-01-02T00:27:18.114Z,997.84
2018-01-02T00:28:18.082Z,997.86
2018-01-02T00:29:18.070Z,997.84
2018-01-02T00:30:18.063Z,997.86
2018-01-02T00:31:18.064Z,997.88
2018-01-02T00:32:18.045Z,997.89
2018-01-02T00:33:18.793Z,997.93
2018-01-02T00:34:18.028Z,997.90
2018-01-02T00:35:18.021Z,997.98
2018-01-02T00:36:18.012Z,997.95
2018-01-02T00:37:18.006Z,998.00
2018-01-02T00:38:17.992Z,998.03
2018-01-02T00:39:17.987Z,998.05
2018-01-02T00:40:17.980Z,998.05
2018-01-02T00:41:17.972Z,998.08
2018-01-02T00:41:30.808Z,998.06
2018-01-02T00:43:17.970Z,998.14
2018-01-02T00:44:17.941Z,998.14
2018-01-02T00:45:17.938Z,998.09
2018-01-02T00:46:18.814Z,998.14
2018-01-02T00:47:17.926Z,998.14
2018-01-02T00:48:17.918Z,998.14
2018-01-02T00:49:17.906Z,998.15
2018-01-02T00:50:17.894Z,998.14
2018-01-02T00:51:17.883Z,998.18
2018-01-02T00:52:17.880Z,998.19
2018-01-02T00:53:18.801Z,998.18
2018-01-02T00:54:17.865Z,998.22
2018-01-02T00:55:17.857Z,998.24
2018-01-02T00:56:17.859Z,998.23
2018-01-02T00:57:17.836Z,998.27
2018-01-02T00:58:17.826Z,998.25
2018-01-02T00:59:17.834Z,998.27
2018-01-02T01:00:17.820Z,998.27
2018-01-02T01:01:17.822Z,998.31
2018-01-02T01:02:17.804Z,998.27
2018-01-02T01:03:17.798Z,998.33
2018-01-02T01:04:17.787Z,998.33
2018-01-02T01:05:17.776Z,998.36
2018-01-02T01:06:17.767Z,998.34
2018-01-02T01:07:17.762Z,998.41
2018-01-02T01:08:17.751Z,998.42
2018-01-02T01:09:17.748Z,998.46
2018-01-02T01:10:17.746Z,998.49
2018-01-02T01:11:17.730Z,998.50
2018-01-02T01:12:17.723Z,998.51
2018-01-02T01:13:17.716Z,998.52
2018-01-02T01:14:17.708Z,998.52
2018-01-02T01:15:17.703Z,998.57
2018-01-02T01:16:18.309Z,998.58
2018-01-02T01:17:17.679Z,998.64
2018-01-02T01:18:17.666Z,998.68
2018-01-02T01:19:17.669Z,998.69
2018-01-02T01:20:17.663Z,998.70
2018-01-02T01:21:17.652Z,998.70
2018-01-02T01:22:17.646Z,998.71
2018-01-02T01:23:17.642Z,998.71
2018-01-02T01:24:17.633Z,998.76
2018-01-02T01:25:17.619Z,998.77
2018-01-02T01:26:17.614Z,998.81
2018-01-02T01:27:17.611Z,998.83
2018-01-02T01:28:17.596Z,998.85
2018-01-02T01:29:18.313Z,998.90
2018-01-02T01:30:17.579Z,998.85
2018-01-02T01:31:17.576Z,998.87
2018-01-02T01:32:17.565Z,998.90
2018-01-02T01:33:17.557Z,998.90
2018-01-02T01:34:17.548Z,998.96
2018-01-02T01:35:17.543Z,998.95
2018-01-02T01:36:17.538Z,998.96
2018-01-02T01:37:17.529Z,998.99
2018-01-02T01:38:17.523Z,999.04
2018-01-02T01:39:17.516Z,999.09
2018-01-02T01:40:17.506Z,999.07
2018-01-02T01:41:17.503Z,999.11
2018-01-02T01:42:17.494Z,999.13
2018-01-02T01:43:17.483Z,999.09
2018-01-02T01:44:17.477Z,999.11
2018-01-02T01:45:17.465Z,999.12
2018-01-02T01:46:17.456Z,999.11
2018-01-02T01:46:29.459Z,999.14
2018-01-02T01:48:17.441Z,999.12
2018-01-02T01:49:17.432Z,999.21
2018-01-02T01:50:18.320Z,999.21
2018-01-02T01:51:18.330Z,999.22
2018-01-02T01:52:17.416Z,999.22
2018-01-02T01:53:17.401Z,999.24
2018-01-02T01:54:17.399Z,999.30
2018-01-02T01:55:17.389Z,999.30
2018-01-02T01:56:17.379Z,999.32
2018-01-02T01:57:18.327Z,999.36
2018-01-02T01:58:18.326Z,999.39
2018-01-02T01:59:17.362Z,999.39
2018-01-02T02:00:17.346Z,999.37
2018-01-02T02:01:17.338Z,999.43
2018-01-02T02:02:17.335Z,999.40
2018-01-02T02:03:17.323Z,999.38
2018-01-02T02:04:17.311Z,999.36
2018-01-02T02:05:17.314Z,999.36
2018-01-02T02:06:17.298Z,999.38
2018-01-02T02:07:17.294Z,999.40
2018-01-02T02:08:17.286Z,999.38
2018-01-02T02:09:17.283Z,999.39
2018-01-02T02:10:17.272Z,999.41
2018-01-02T02:11:17.270Z,999.41
2018-01-02T02:12:17.254Z,999.41
2018-01-02T02:13:17.248Z,999.46
2018-01-02T02:14:17.240Z,999.48
2018-01-02T02:15:17.233Z,999.45
2018-01-02T02:16:17.221Z,999.44
2018-01-02T02:17:17.212Z,999.47
2018-01-02T02:18:17.206Z,999.51
2018-01-02T02:19:17.196Z,999.51
2018-01-02T02:20:17.198Z,999.50
2018-01-02T02:21:17.187Z,999.47
2018-01-02T02:22:17.177Z,999.49
2018-01-02T02:23:17.162Z,999.52
2018-01-02T02:24:17.159Z,999.53
2018-01-02T02:25:17.152Z,999.49
2018-01-02T02:26:17.142Z,999.51
2018-01-02T02:27:17.143Z,999.53
2018-01-02T02:28:17.122Z,999.52
2018-01-02T02:29:17.119Z,999.52
2018-01-02T02:30:17.110Z,999.49
2018-01-02T02:31:17.105Z,999.54
2018-01-02T02:32:17.099Z,999.56
2018-01-02T02:33:17.092Z,999.56
2018-01-02T02:34:17.086Z,999.56
2018-01-02T02:35:17.076Z,999.56
2018-01-02T02:36:17.069Z,999.62
2018-01-02T02:37:17.060Z,999.61
2018-01-02T02:38:17.057Z,999.57
2018-01-02T02:39:17.054Z,999.59
2018-01-02T02:40:17.033Z,999.60
2018-01-02T02:41:17.020Z,999.60
2018-01-02T02:42:17.019Z,999.61
2018-01-02T02:43:17.011Z,999.64
2018-01-02T02:44:17.002Z,999.69
2018-01-02T02:45:16.997Z,999.66
2018-01-02T02:46:17.033Z,999.66
2018-01-02T02:47:16.986Z,999.71
2018-01-02T02:48:16.976Z,999.67
2018-01-02T02:49:16.969Z,999.66
2018-01-02T02:50:16.959Z,999.63
2018-01-02T02:51:16.956Z,999.63
2018-01-02T02:52:16.944Z,999.63
2018-01-02T02:53:16.942Z,999.61
2018-01-02T02:54:16.930Z,999.58
2018-01-02T02:55:16.923Z,999.63
2018-01-02T02:56:16.913Z,999.67
2018-01-02T02:57:16.901Z,999.66
2018-01-02T02:58:16.895Z,999.68
2018-01-02T02:59:16.893Z,999.68
2018-01-02T03:00:16.881Z,999.68
2018-01-02T03:01:16.871Z,999.67
2018-01-02T03:02:16.867Z,999.73
2018-01-02T03:03:16.858Z,999.70
2018-01-02T03:04:16.852Z,999.70
2018-01-02T03:05:16.846Z,999.71
2018-01-02T03:06:16.838Z,999.70
2018-01-02T03:07:16.834Z,999.72
2018-01-02T03:08:16.825Z,999.80
2018-01-02T03:09:16.809Z,999.78
2018-01-02T03:10:16.803Z,999.74
2018-01-02T03:11:16.801Z,999.81
2018-01-02T03:12:16.792Z,999.71
2018-01-02T03:13:16.783Z,999.68
2018-01-02T03:14:16.774Z,999.78
2018-01-02T03:15:16.767Z,999.73
2018-01-02T03:16:16.757Z,999.78
2018-01-02T03:17:16.761Z,999.77
2018-01-02T03:18:16.742Z,999.78
2018-01-02T03:19:16.734Z,999.73
2018-01-02T03:20:16.732Z,999.74
2018-01-02T03:21:16.722Z,999.83
2018-01-02T03:22:16.715Z,999.74
2018-01-02T03:23:16.710Z,999.76
2018-01-02T03:24:16.696Z,999.79
2018-01-02T03:25:16.689Z,999.77
2018-01-02T03:26:16.680Z,999.77
2018-01-02T03:27:16.676Z,999.73
2018-01-02T03:28:16.684Z,999.76
2018-01-02T03:29:16.662Z,999.76
2018-01-02T03:30:16.658Z,999.73
2018-01-02T03:31:16.659Z,999.72
2018-01-02T03:32:16.642Z,999.72
2018-01-02T03:33:16.631Z,999.75
2018-01-02T03:34:16.622Z,999.75
2018-01-02T03:35:16.619Z,999.78
2018-01-02T03:36:16.609Z,999.76
2018-01-02T03:37:16.600Z,999.78
2018-01-02T03:38:16.592Z,999.78
2018-01-02T03:39:16.586Z,999.78
2018-01-02T03:40:16.575Z,999.78
2018-01-02T03:41:16.568Z,999.77
2018-01-02T03:42:16.560Z,999.78
2018-01-02T03:43:16.561Z,999.78
2018-01-02T03:44:16.555Z,999.78
2018-01-02T03:45:16.543Z,999.77
2018-01-02T03:46:16.534Z,999.80
2018-01-02T03:47:16.528Z,999.79
2018-01-02T03:48:16.520Z,999.78
2018-01-02T03:49:16.513Z,999.83
2018-01-02T03:50:16.505Z,999.79
2018-01-02T03:51:16.505Z,999.83
2018-01-02T03:52:16.488Z,999.78
2018-01-02T03:53:16.477Z,999.80
2018-01-02T03:54:16.471Z,999.80
2018-01-02T03:55:16.460Z,999.82
2018-01-02T03:56:16.455Z,999.85
2018-01-02T03:57:16.447Z,999.85
2018-01-02T03:58:16.441Z,999.89
2018-01-02T03:59:16.434Z,999.92
2018-01-02T04:00:16.439Z,999.97
2018-01-02T04:01:16.417Z,999.97
2018-01-02T04:02:16.413Z,1000.00
2018-01-02T04:03:16.406Z,1000.01
2018-01-02T04:04:16.399Z,999.99
2018-01-02T04:05:16.389Z,999.96
2018-01-02T04:06:16.382Z,1000.00
2018-01-02T04:07:16.377Z,999.99
2018-01-02T04:08:16.364Z,1000.04
2018-01-02T04:09:16.355Z,1000.07
2018-01-02T04:10:16.348Z,1000.06
2018-01-02T04:11:16.344Z,1000.04
2018-01-02T04:12:16.334Z,1000.07
2018-01-02T04:12:28.333Z,1000.08
2018-01-02T04:14:16.318Z,1000.06
2018-01-02T04:15:16.313Z,1000.04
2018-01-02T04:16:16.305Z,1000.08
2018-01-02T04:17:16.298Z,1000.03
2018-01-02T04:18:16.291Z,1000.08
2018-01-02T04:19:16.287Z,1000.09
2018-01-02T04:20:16.277Z,1000.13
2018-01-02T04:21:16.272Z,1000.11
2018-01-02T04:22:16.263Z,1000.13
2018-01-02T04:23:16.255Z,1000.16
2018-01-02T04:24:16.243Z,1000.16
2018-01-02T04:25:16.247Z,1000.18
2018-01-02T04:26:16.232Z,1000.18
2018-01-02T04:27:16.223Z,1000.19
2018-01-02T04:28:16.220Z,1000.19
2018-01-02T04:29:16.205Z,1000.21
2018-01-02T04:30:16.193Z,1000.22
2018-01-02T04:31:16.194Z,1000.23
2018-01-02T04:32:16.192Z,1000.23
2018-01-02T04:33:16.179Z,1000.25
2018-01-02T04:34:16.172Z,1000.26
2018-01-02T04:35:16.166Z,1000.28
2018-01-02T04:36:16.160Z,1000.29
2018-01-02T04:37:16.150Z,1000.39
2018-01-02T04:38:16.146Z,1000.35
2018-01-02T04:39:16.136Z,1000.38
2018-01-02T04:40:16.126Z,1000.43
2018-01-02T04:41:16.117Z,1000.50
2018-01-02T04:42:16.109Z,1000.57
2018-01-02T04:43:16.101Z,1000.51
2018-01-02T04:44:16.093Z,1000.55
2018-01-02T04:45:16.086Z,1000.61
2018-01-02T04:46:16.080Z,1000.61
2018-01-02T04:47:16.070Z,1000.52
2018-01-02T04:48:16.070Z,1000.59
2018-01-02T04:49:16.060Z,1000.59
2018-01-02T04:50:16.053Z,1000.66
2018-01-02T04:51:16.052Z,1000.64
2018-01-02T04:52:16.037Z,1000.71
2018-01-02T04:53:16.027Z,1000.69
2018-01-02T04:54:16.016Z,1000.73
2018-01-02T04:55:16.027Z,1000.77
2018-01-02T04:56:16.887Z,1000.83
2018-01-02T04:57:15.995Z,1000.85
2018-01-02T04:58:15.988Z,1000.87
2018-01-02T04:59:15.981Z,1000.91
2018-01-02T05:00:15.974Z,1000.96
2018-01-02T05:01:15.965Z,1000.92
2018-01-02T05:02:15.958Z,1000.93
2018-01-02T05:03:15.952Z,1000.96
2018-01-02T05:04:15.949Z,1000.97
2018-01-02T05:05:15.939Z,1000.95
2018-01-02T05:06:15.944Z,1001.00
2018-01-02T05:07:15.930Z,1001.06
2018-01-02T05:08:15.916Z,1001.04
2018-01-02T05:09:15.903Z,1001.06
2018-01-02T05:10:16.895Z,1001.06
2018-01-02T05:11:15.895Z,1001.16
2018-01-02T05:12:15.882Z,1001.19
2018-01-02T05:13:15.875Z,1001.24
2018-01-02T05:14:15.864Z,1001.25
2018-01-02T05:15:15.861Z,1001.31
2018-01-02T05:16:15.852Z,1001.32
2018-01-02T05:17:15.842Z,1001.26
2018-01-02T05:18:15.838Z,1001.26
2018-01-02T05:19:15.830Z,1001.33
2018-01-02T05:20:15.827Z,1001.30
2018-01-02T05:21:15.816Z,1001.32
2018-01-02T05:22:15.808Z,1001.31
2018-01-02T05:23:15.802Z,1001.39
2018-01-02T05:24:15.792Z,1001.45
2018-01-02T05:25:15.785Z,1001.49
2018-01-02T05:26:15.777Z,1001.51
2018-01-02T05:27:15.773Z,1001.49
2018-01-02T05:28:15.760Z,1001.55
2018-01-02T05:29:15.750Z,1001.50
2018-01-02T05:30:15.742Z,1001.56
2018-01-02T05:31:15.747Z,1001.64
2018-01-02T05:32:15.738Z,1001.59
2018-01-02T05:33:15.722Z,1001.65
2018-01-02T05:34:15.716Z,1001.67
2018-01-02T05:35:15.710Z,1001.62
2018-01-02T05:36:15.697Z,1001.65
2018-01-02T05:37:15.687Z,1001.73
2018-01-02T05:38:15.689Z,1001.76
2018-01-02T05:39:15.678Z,1001.77
2018-01-02T05:40:15.667Z,1001.74
2018-01-02T05:41:15.658Z,1001.75
2018-01-02T05:42:15.648Z,1001.81
2018-01-02T05:43:15.648Z,1001.83
2018-01-02T05:44:15.635Z,1001.86
2018-01-02T05:45:15.628Z,1001.91
2018-01-02T05:45:27.624Z,1001.81
2018-01-02T05:47:15.615Z,1001.97
2018-01-02T05:48:15.607Z,1002.00
2018-01-02T05:49:15.609Z,1001.98
2018-01-02T05:50:15.593Z,1002.05
2018-01-02T05:51:15.584Z,1002.07
2018-01-02T05:52:15.572Z,1002.06
2018-01-02T05:53:15.563Z,1002.11
2018-01-02T05:54:15.556Z,1002.10
2018-01-02T05:55:15.543Z,1002.09
2018-01-02T05:56:15.558Z,1002.14
2018-01-02T05:57:15.538Z,1002.17
2018-01-02T05:58:15.525Z,1002.19
2018-01-02T05:59:15.521Z,1002.18
2018-01-02T06:00:15.514Z,1002.23
2018-01-02T06:01:15.498Z,1002.26
2018-01-02T06:02:15.498Z,1002.27
2018-01-02T06:03:15.484Z,1002.31
2018-01-02T06:04:15.492Z,1002.22
2018-01-02T06:05:15.475Z,1002.23
2018-01-02T06:06:15.466Z,1002.29
2018-01-02T06:07:15.458Z,1002.34
2018-01-02T06:08:15.449Z,1002.41
2018-01-02T06:09:15.437Z,1002.39
2018-01-02T06:10:15.429Z,1002.43
2018-01-02T06:11:15.439Z,1002.41
2018-01-02T06:12:15.416Z,1002.48
2018-01-02T06:13:15.406Z,1002.48
2018-01-02T06:14:15.400Z,1002.51
2018-01-02T06:15:15.393Z,1002.51
2018-01-02T06:16:15.385Z,1002.50
2018-01-02T06:17:15.915Z,1002.57
2018-01-02T06:18:15.373Z,1002.59
2018-01-02T06:19:15.371Z,1002.64
2018-01-02T06:20:15.356Z,1002.61
2018-01-02T06:21:15.348Z,1002.59
2018-01-02T06:22:15.340Z,1002.75
2018-01-02T06:23:15.325Z,1002.71
2018-01-02T06:24:15.323Z,1002.69
2018-01-02T06:25:15.313Z,1002.72
2018-01-02T06:26:15.310Z,1002.75
2018-01-02T06:27:15.301Z,1002.85
2018-01-02T06:28:15.295Z,1002.87
2018-01-02T06:29:15.281Z,1002.85
2018-01-02T06:30:15.277Z,1002.88
2018-01-02T06:31:15.277Z,1002.86
2018-01-02T06:32:15.262Z,1002.94
2018-01-02T06:33:15.256Z,1002.98
2018-01-02T06:34:15.249Z,1002.99
2018-01-02T06:35:15.236Z,1003.01
2018-01-02T06:36:15.226Z,1003.02
2018-01-02T06:37:15.209Z,1003.01
2018-01-02T06:38:15.210Z,1003.04
2018-01-02T06:39:15.206Z,1003.04
2018-01-02T06:40:15.196Z,1003.03
2018-01-02T06:41:15.192Z,1003.07
2018-01-02T06:42:17.584Z,1003.12
2018-01-02T06:43:15.191Z,1003.08
2018-01-02T06:44:15.165Z,1003.06
2018-01-02T06:45:15.157Z,1003.18
2018-01-02T06:46:17.395Z,1003.11
2018-01-02T06:47:15.146Z,1003.14
2018-01-02T06:48:15.136Z,1003.12
2018-01-02T06:49:15.117Z,1003.21
2018-01-02T06:50:15.116Z,1003.19
2018-01-02T06:51:15.105Z,1003.26
2018-01-02T06:52:15.099Z,1003.29
2018-01-02T06:53:15.090Z,1003.29
2018-01-02T06:54:15.091Z,1003.30
2018-01-02T06:55:15.082Z,1003.27
2018-01-02T06:56:15.072Z,1003.30
2018-01-02T06:57:15.064Z,1003.32
2018-01-02T06:58:15.049Z,1003.29
2018-01-02T06:59:15.054Z,1003.29
2018-01-02T07:00:15.935Z,1003.32
2018-01-02T07:01:37.328Z,1003.39
2018-01-02T07:02:27.880Z,1003.45
2018-01-02T07:03:27.827Z,1003.49
2018-01-02T07:04:27.819Z,1003.46
2018-01-02T07:05:27.851Z,1003.44
2018-01-02T07:06:27.818Z,1003.46
2018-01-02T07:07:27.798Z,1003.47
2018-01-02T07:08:27.786Z,1003.50
2018-01-02T07:09:27.779Z,1003.57
2018-01-02T07:10:27.771Z,1003.54
2018-01-02T07:11:27.772Z,1003.51
2018-01-02T07:12:27.759Z,1003.54
2018-01-02T07:13:27.746Z,1003.56
2018-01-02T07:14:27.746Z,1003.63
2018-01-02T07:15:27.735Z,1003.57
2018-01-02T07:16:27.728Z,1003.57
2018-01-02T07:17:27.719Z,1003.64
2018-01-02T07:18:27.713Z,1003.62
2018-01-02T07:19:27.704Z,1003.70
2018-01-02T07:20:27.692Z,1003.70
2018-01-02T07:21:27.682Z,1003.64
2018-01-02T07:22:27.676Z,1003.69
2018-01-02T07:23:27.668Z,1003.75
2018-01-02T07:24:27.662Z,1003.74
2018-01-02T07:25:27.653Z,1003.77
2018-01-02T07:26:27.646Z,1003.76
2018-01-02T07:27:27.643Z,1003.76
2018-01-02T07:28:27.630Z,1003.76
2018-01-02T07:29:27.632Z,1003.78
2018-01-02T07:30:28.455Z,1003.75
2018-01-02T07:31:27.610Z,1003.76
2018-01-02T07:32:27.603Z,1003.78
2018-01-02T07:33:27.595Z,1003.83
2018-01-02T07:34:27.610Z,1003.84
2018-01-02T07:35:27.574Z,1003.89
2018-01-02T07:36:28.445Z,1003.92
2018-01-02T07:37:27.559Z,1003.92
2018-01-02T07:38:29.052Z,1003.94
2018-01-02T07:39:27.548Z,1003.92
2018-01-02T07:40:27.545Z,1003.98
2018-01-02T07:41:27.522Z,1003.96
2018-01-02T07:42:44.332Z,1004.05
2018-01-02T07:43:27.516Z,1004.05
2018-01-02T07:44:27.518Z,1004.05
2018-01-02T07:45:27.499Z,1004.13
2018-01-02T07:46:27.494Z,1004.19
2018-01-02T07:47:27.484Z,1004.23
2018-01-02T07:48:27.473Z,1004.30
2018-01-02T07:49:57.279Z,1004.36
2018-01-02T07:50:27.458Z,1004.37
2018-01-02T07:51:27.459Z,1004.42
2018-01-02T07:52:27.450Z,1004.46
2018-01-02T07:53:27.439Z,1004.53
2018-01-02T07:54:27.444Z,1004.57
2018-01-02T07:55:27.425Z,1004.67
2018-01-02T07:56:27.413Z,1004.67
2018-01-02T07:57:27.405Z,1004.74
2018-01-02T07:58:27.957Z,1004.74
2018-01-02T07:59:27.389Z,1004.77
2018-01-02T08:00:27.379Z,1004.76
2018-01-02T08:01:27.372Z,1004.84
2018-01-02T08:02:27.365Z,1004.85
2018-01-02T08:03:27.356Z,1004.86
2018-01-02T08:04:27.351Z,1004.88
2018-01-02T08:05:27.342Z,1004.92
2018-01-02T08:06:27.340Z,1004.94
2018-01-02T08:07:27.327Z,1004.98
2018-01-02T08:08:27.333Z,1005.05
2018-01-02T08:09:27.316Z,1005.07
2018-01-02T08:10:27.323Z,1005.08
2018-01-02T08:11:27.298Z,1005.14
2018-01-02T08:12:27.288Z,1005.21
2018-01-02T08:13:27.313Z,1005.24
2018-01-02T08:14:27.275Z,1005.26
2018-01-02T08:15:27.262Z,1005.26
2018-01-02T08:16:27.252Z,1005.34
2018-01-02T08:17:27.251Z,1005.30
2018-01-02T08:18:27.243Z,1005.29
2018-01-02T08:19:27.237Z,1005.33
2018-01-02T08:20:30.517Z,1005.39
2018-01-02T08:21:27.234Z,1005.45
2018-01-02T08:22:27.210Z,1005.43
2018-01-02T08:23:27.206Z,1005.43
2018-01-02T08:24:27.223Z,1005.48
2018-01-02T08:25:27.213Z,1005.54
2018-01-02T08:26:27.181Z,1005.47
2018-01-02T08:27:27.172Z,1005.61
2018-01-02T08:28:27.165Z,1005.57
2018-01-02T08:29:27.156Z,1005.59
2018-01-02T08:30:27.148Z,1005.62
2018-01-02T08:31:27.142Z,1005.56
2018-01-02T08:32:27.964Z,1005.62
2018-01-02T08:33:27.124Z,1005.64
2018-01-02T08:34:27.114Z,1005.68
2018-01-02T08:35:27.105Z,1005.68
2018-01-02T08:36:27.106Z,1005.68
2018-01-02T08:37:27.088Z,1005.67
2018-01-02T08:38:27.089Z,1005.66
2018-01-02T08:39:27.081Z,1005.64
2018-01-02T08:40:27.073Z,1005.67
2018-01-02T08:41:27.072Z,1005.67
2018-01-02T08:42:27.057Z,1005.71
2018-01-02T08:43:27.045Z,1005.68
2018-01-02T08:44:27.038Z,1005.73
2018-01-02T08:45:27.030Z,1005.75
2018-01-02T08:46:27.023Z,1005.79
2018-01-02T08:47:27.020Z,1005.81
2018-01-02T08:48:27.010Z,1005.84
2018-01-02T08:49:27.005Z,1005.82
2018-01-02T08:50:26.996Z,1005.89
2018-01-02T08:51:26.987Z,1005.88
2018-01-02T08:52:26.976Z,1005.93
2018-01-02T08:53:26.984Z,1005.90
2018-01-02T08:54:26.967Z,1005.94
2018-01-02T08:55:26.959Z,1005.93
2018-01-02T08:56:26.943Z,1005.96
2018-01-02T08:56:38.952Z,1005.94
2018-01-02T08:58:26.936Z,1005.96
2018-01-02T08:59:26.929Z,1005.96
2018-01-02T09:00:26.918Z,1005.98
2018-01-02T09:01:26.909Z,1005.99
2018-01-02T09:02:27.474Z,1006.03
2018-01-02T09:03:26.900Z,1006.04
2018-01-02T09:04:26.890Z,1006.07
2018-01-02T09:05:26.894Z,1006.12
2018-01-02T09:06:26.876Z,1006.14
2018-01-02T09:07:26.866Z,1006.14
2018-01-02T09:08:26.860Z,1006.16
2018-01-02T09:11:49.963Z,1006.15
2018-01-02T09:12:49.928Z,1006.15
2018-01-02T09:15:34.336Z,1006.19
2018-01-02T09:16:34.267Z,1006.15
2018-01-02T09:17:34.270Z,1006.16
2018-01-02T09:18:34.257Z,1006.21
2018-01-02T09:19:34.238Z,1006.21
2018-01-02T09:20:34.253Z,1006.18
2018-01-02T09:21:34.237Z,1006.15
2018-01-02T09:22:34.227Z,1006.13
2018-01-02T09:23:34.223Z,1006.15
2018-01-02T09:24:34.214Z,1006.16
2018-01-02T09:25:34.206Z,1006.17
2018-01-02T09:26:34.197Z,1006.20
2018-01-02T09:27:34.186Z,1006.27
2018-01-02T09:28:34.180Z,1006.28
2018-01-02T09:29:34.186Z,1006.31
2018-01-02T09:30:34.170Z,1006.36
2018-01-02T09:31:34.172Z,1006.39
2018-01-02T09:32:34.155Z,1006.35
2018-01-02T09:33:34.145Z,1006.38
2018-01-02T09:34:34.147Z,1006.44
2018-01-02T09:35:34.129Z,1006.47
2018-01-02T09:36:34.138Z,1006.48
2018-01-02T09:37:34.128Z,1006.56
2018-01-02T09:38:34.115Z,1006.54
2018-01-02T09:39:34.108Z,1006.58
2018-01-02T09:40:34.097Z,1006.58
2018-01-02T09:41:34.091Z,1006.62
2018-01-02T09:42:34.090Z,1006.61
2018-01-02T09:43:34.076Z,1006.55
2018-01-02T09:44:34.088Z,1006.57
2018-01-02T09:45:34.062Z,1006.56
2018-01-02T09:46:34.879Z,1006.51
2018-01-02T09:47:34.046Z,1006.58
2018-01-02T09:48:34.046Z,1006.53
2018-01-02T09:49:34.037Z,1006.53
2018-01-02T09:49:46.038Z,1006.55
2018-01-02T09:51:34.021Z,1006.62
2018-01-02T09:52:34.016Z,1006.59
2018-01-02T09:53:34.008Z,1006.62
2018-01-02T09:54:34.008Z,1006.56
2018-01-02T09:55:33.995Z,1006.64
2018-01-02T09:56:33.989Z,1006.59
2018-01-02T09:57:33.977Z,1006.60
2018-01-02T09:58:33.966Z,1006.58
2018-01-02T09:59:33.966Z,1006.65
2018-01-02T10:00:33.960Z,1006.59
2018-01-02T10:01:33.951Z,1006.62
2018-01-02T10:02:33.946Z,1006.58
2018-01-02T10:03:33.942Z,1006.61
2018-01-02T10:04:33.934Z,1006.65
2018-01-02T10:05:34.875Z,1006.67
2018-01-02T10:06:34.873Z,1006.65
2018-01-02T10:07:33.916Z,1006.67
2018-01-02T10:08:33.910Z,1006.68
2018-01-02T10:09:33.902Z,1006.68
2018-01-02T10:10:33.893Z,1006.65
2018-01-02T10:11:33.888Z,1006.63
2018-01-02T10:12:33.878Z,1006.61
2018-01-02T10:13:33.870Z,1006.64
2018-01-02T10:14:33.865Z,1006.64
2018-01-02T10:15:33.861Z,1006.63
2018-01-02T10:16:34.368Z,1006.59
2018-01-02T10:17:33.844Z,1006.62
2018-01-02T10:18:33.841Z,1006.66
2018-01-02T10:19:33.835Z,1006.66
2018-01-02T10:20:33.829Z,1006.67
2018-01-02T10:21:33.840Z,1006.69
2018-01-02T10:22:33.811Z,1006.66
2018-01-02T10:23:33.809Z,1006.70
2018-01-02T10:24:33.804Z,1006.67
2018-01-02T10:25:33.831Z,1006.70
2018-01-02T10:26:33.792Z,1006.74
2018-01-02T10:27:34.396Z,1006.66
2018-01-02T10:28:33.775Z,1006.65
2018-01-02T10:29:33.762Z,1006.70
2018-01-02T10:30:33.759Z,1006.69
2018-01-02T10:31:33.753Z,1006.72
2018-01-02T10:32:34.384Z,1006.74
2018-01-02T10:33:33.744Z,1006.77
2018-01-02T10:34:33.738Z,1006.72
2018-01-02T10:35:33.728Z,1006.78
2018-01-02T10:36:33.718Z,1006.81
2018-01-02T10:37:33.720Z,1006.81
2018-01-02T10:38:33.716Z,1006.80
2018-01-02T10:39:33.705Z,1006.81
2018-01-02T10:40:33.703Z,1006.86
2018-01-02T10:41:33.693Z,1006.84
2018-01-02T10:42:33.686Z,1006.86
2018-01-02T10:43:33.682Z,1006.85
2018-01-02T10:44:33.671Z,1006.80
2018-01-02T10:45:33.663Z,1006.82
2018-01-02T10:46:35.475Z,1006.84
2018-01-02T10:47:35.537Z,1006.90
2018-01-02T10:48:33.648Z,1006.80
2018-01-02T10:49:33.632Z,1006.87
2018-01-02T10:50:33.628Z,1006.93
2018-01-02T10:51:33.636Z,1006.88
2018-01-02T10:52:33.625Z,1006.90
2018-01-02T10:53:33.611Z,1006.89
2018-01-02T10:54:33.611Z,1006.86
2018-01-02T10:55:33.628Z,1006.90
2018-01-02T10:56:33.600Z,1006.89
2018-01-02T10:57:33.591Z,1006.91
2018-01-02T10:58:33.589Z,1006.88
2018-01-02T10:59:33.578Z,1006.83
2018-01-02T11:00:33.572Z,1006.93
2018-01-02T11:01:33.560Z,1006.91
2018-01-02T11:02:33.557Z,1006.90
2018-01-02T11:03:35.034Z,1006.94
2018-01-02T11:04:33.564Z,1006.91
2018-01-02T11:05:33.541Z,1006.93
2018-01-02T11:06:33.532Z,1006.90
2018-01-02T11:07:33.536Z,1006.92
2018-01-02T11:08:33.550Z,1006.95
2018-01-02T11:09:33.515Z,1006.96
2018-01-02T11:10:33.505Z,1006.98
2018-01-02T11:11:33.501Z,1006.99
2018-01-02T11:12:33.498Z,1006.97
2018-01-02T11:13:33.490Z,1006.99
2018-01-02T11:14:33.477Z,1007.04
2018-01-02T11:15:33.471Z,1007.03
2018-01-02T11:16:33.468Z,1007.05
2018-01-02T11:17:33.461Z,1007.07
2018-01-02T11:18:33.472Z,1007.12
2018-01-02T11:19:33.449Z,1007.13
2018-01-02T11:20:34.395Z,1007.14
2018-01-02T11:21:33.438Z,1007.11
2018-01-02T11:22:33.437Z,1007.14
2018-01-02T11:23:33.423Z,1007.15
2018-01-02T11:24:33.425Z,1007.18
2018-01-02T11:25:33.413Z,1007.15
2018-01-02T11:26:33.404Z,1007.20
2018-01-02T11:27:33.400Z,1007.20
2018-01-02T11:28:33.411Z,1007.21
2018-01-02T11:29:33.396Z,1007.22
2018-01-02T11:30:33.380Z,1007.22
2018-01-02T11:31:33.374Z,1007.17
2018-01-02T11:32:33.367Z,1007.15
2018-01-02T11:33:33.359Z,1007.16
2018-01-02T11:34:33.351Z,1007.15
2018-01-02T11:35:33.357Z,1007.21
2018-01-02T11:36:33.341Z,1007.21
2018-01-02T11:37:33.336Z,1007.20
2018-01-02T11:38:33.329Z,1007.24
2018-01-02T11:39:33.320Z,1007.24
2018-01-02T11:40:33.320Z,1007.31
2018-01-02T11:41:33.314Z,1007.31
2018-01-02T11:42:33.302Z,1007.27
2018-01-02T11:43:33.305Z,1007.27
2018-01-02T11:44:33.290Z,1007.26
2018-01-02T11:45:33.917Z,1007.27
2018-01-02T11:46:33.278Z,1007.30
2018-01-02T11:47:33.271Z,1007.26
2018-01-02T11:48:33.267Z,1007.22
2018-01-02T11:49:33.261Z,1007.23
2018-01-02T11:49:45.262Z,1007.20
2018-01-02T11:51:33.250Z,1007.17
2018-01-02T11:52:33.256Z,1007.21
2018-01-02T11:53:33.264Z,1007.14
2018-01-02T11:54:33.231Z,1007.11
2018-01-02T11:55:33.238Z,1007.06
2018-01-02T11:56:33.217Z,1007.06
2018-01-02T11:57:33.200Z,1007.07
2018-01-02T11:58:33.216Z,1007.02
2018-01-02T11:59:33.194Z,1006.98
2018-01-02T12:00:33.189Z,1007.02
2018-01-02T12:01:33.182Z,1006.97
2018-01-02T12:02:33.178Z,1006.93
2018-01-02T12:03:33.170Z,1006.94
2018-01-02T12:04:33.169Z,1006.99
2018-01-02T12:05:33.158Z,1007.00
2018-01-02T12:06:33.159Z,1006.96
2018-01-02T12:07:33.149Z,1006.91
2018-01-02T12:08:33.136Z,1006.88
2018-01-02T12:09:33.142Z,1006.89
2018-01-02T12:10:33.188Z,1006.91
2018-01-02T12:11:33.126Z,1006.90
2018-01-02T12:12:33.117Z,1006.86
2018-01-02T12:13:33.115Z,1006.86
2018-01-02T12:14:33.109Z,1006.82
2018-01-02T12:15:33.094Z,1006.85
2018-01-02T12:16:33.094Z,1006.85
2018-01-02T12:17:33.088Z,1006.78